createdAt,value
2023-04-27T00:01:14.421Z,56.01
2023-04-27T00:03:42.145Z,56.04
2023-04-27T00:06:11.602Z,56.18
2023-04-27T00:08:38.220Z,56.30
2023-04-27T00:11:05.266Z,56.32
2023-04-27T00:13:31.835Z,56.35
2023-04-27T00:16:02.532Z,56.42
2023-04-27T00:18:30.421Z,56.51
2023-04-27T00:20:57.022Z,56.59
2023-04-27T00:23:23.673Z,56.61
2023-04-27T00:25:50.175Z,56.67
2023-04-27T00:28:16.818Z,56.80
2023-04-27T00:30:44.495Z,56.71
2023-04-27T00:33:11.110Z,56.78
2023-04-27T00:35:37.591Z,56.92
2023-04-27T00:38:04.095Z,56.91
2023-04-27T00:40:30.770Z,56.92
2023-04-27T00:42:57.275Z,56.88
2023-04-27T00:45:25.145Z,56.93
2023-04-27T00:47:51.817Z,57.07
2023-04-27T00:50:27.773Z,57.08
2023-04-27T00:52:56.046Z,57.07
2023-04-27T00:55:25.272Z,57.08
2023-04-27T00:57:51.820Z,57.06
2023-04-27T01:00:18.454Z,57.17
2023-04-27T01:02:45.468Z,57.29
2023-04-27T01:05:12.695Z,57.21
2023-04-27T01:07:40.336Z,57.29
2023-04-27T01:10:07.991Z,57.37
2023-04-27T01:12:35.771Z,57.33
2023-04-27T01:15:06.000Z,57.35
2023-04-27T01:17:32.579Z,57.41
2023-04-27T01:19:59.545Z,57.41
2023-04-27T01:22:26.395Z,57.41
2023-04-27T01:24:53.359Z,57.58
2023-04-27T01:27:20.385Z,57.54
2023-04-27T01:29:46.944Z,57.78
2023-04-27T01:32:13.618Z,57.67
2023-04-27T01:34:40.212Z,57.74
2023-04-27T01:37:06.734Z,57.74
2023-04-27T01:39:33.288Z,57.70
2023-04-27T01:42:02.909Z,57.79
2023-04-27T01:44:29.781Z,57.90
2023-04-27T01:46:56.318Z,57.80
2023-04-27T01:49:22.788Z,57.83
2023-04-27T01:51:49.370Z,57.95
2023-04-27T01:54:16.301Z,58.03
2023-04-27T01:56:43.094Z,58.00
2023-04-27T01:59:09.718Z,57.97
2023-04-27T02:01:36.285Z,58.12
2023-04-27T02:04:03.674Z,58.13
2023-04-27T02:06:30.692Z,58.10
2023-04-27T02:08:57.325Z,58.10
2023-04-27T02:11:23.942Z,58.19
2023-04-27T02:13:50.715Z,58.23
2023-04-27T02:16:17.441Z,58.25
2023-04-27T02:18:44.029Z,58.36
2023-04-27T02:21:11.051Z,58.41
2023-04-27T02:23:37.725Z,58.42
2023-04-27T02:26:04.419Z,58.30
2023-04-27T02:28:31.680Z,58.36
2023-04-27T02:31:00.842Z,58.45
2023-04-27T02:33:27.381Z,58.54
2023-04-27T02:35:53.890Z,58.59
2023-04-27T02:38:22.175Z,58.59
2023-04-27T02:40:53.200Z,58.55
2023-04-27T02:43:20.486Z,58.69
2023-04-27T02:45:47.337Z,58.63
2023-04-27T02:48:13.860Z,58.66
2023-04-27T02:50:41.700Z,58.65
2023-04-27T02:53:08.693Z,58.70
2023-04-27T02:55:35.199Z,58.76
2023-04-27T02:58:01.902Z,58.71
2023-04-27T03:00:28.805Z,58.82
2023-04-27T03:02:55.868Z,58.89
2023-04-27T03:05:25.663Z,58.88
2023-04-27T03:07:52.222Z,58.85
2023-04-27T03:10:18.822Z,58.93
2023-04-27T03:12:45.351Z,58.97
2023-04-27T03:15:11.839Z,58.96
2023-04-27T03:17:38.413Z,58.88
2023-04-27T03:20:09.162Z,59.03
2023-04-27T03:22:36.485Z,59.08
2023-04-27T03:25:03.376Z,59.08
2023-04-27T03:27:30.190Z,59.19
2023-04-27T03:29:56.641Z,59.05
2023-04-27T03:32:23.180Z,59.23
2023-04-27T03:34:49.993Z,59.13
2023-04-27T03:37:17.376Z,59.14
2023-04-27T03:39:44.517Z,59.14
2023-04-27T03:42:11.193Z,59.29
2023-04-27T03:44:37.750Z,59.27
2023-04-27T03:47:08.495Z,59.20
2023-04-27T03:49:35.887Z,59.31
2023-04-27T03:52:03.011Z,59.41
2023-04-27T03:54:32.851Z,59.39
2023-04-27T03:56:59.420Z,59.33
2023-04-27T03:59:29.472Z,59.43
2023-04-27T04:04:24.037Z,59.42
2023-04-27T04:06:50.924Z,59.65
2023-04-27T04:09:17.440Z,59.70
2023-04-27T04:11:44.037Z,59.68
2023-04-27T04:14:11.928Z,59.64
2023-04-27T04:16:39.989Z,59.69
2023-04-27T04:19:06.680Z,59.61
2023-04-27T04:21:33.330Z,59.43
2023-04-27T04:23:59.829Z,59.46
2023-04-27T04:26:26.684Z,59.32
2023-04-27T04:28:53.314Z,59.13
2023-04-27T04:31:21.372Z,58.89
2023-04-27T04:33:48.219Z,58.85
2023-04-27T04:36:15.284Z,58.88
2023-04-27T04:38:41.835Z,58.77
2023-04-27T04:41:09.985Z,58.72
2023-04-27T04:43:36.917Z,58.51
2023-04-27T04:46:05.797Z,58.48
2023-04-27T04:48:34.306Z,58.43
2023-04-27T04:51:00.857Z,58.23
2023-04-27T04:53:28.968Z,57.87
2023-04-27T04:55:55.861Z,57.62
2023-04-27T04:58:22.390Z,57.64
2023-04-27T05:00:48.924Z,57.34
2023-04-27T05:03:16.055Z,57.06
2023-04-27T05:05:42.697Z,56.71
2023-04-27T05:08:09.253Z,56.75
2023-04-27T05:10:35.812Z,56.61
2023-04-27T05:13:02.372Z,56.45
2023-04-27T05:15:29.035Z,56.34
2023-04-27T05:17:55.516Z,56.40
2023-04-27T05:20:22.102Z,56.01
2023-04-27T05:22:48.650Z,55.88
2023-04-27T05:25:15.252Z,55.74
2023-04-27T05:27:42.071Z,55.52
2023-04-27T05:30:09.056Z,55.26
2023-04-27T05:32:36.657Z,55.24
2023-04-27T05:35:04.428Z,55.00
2023-04-27T05:37:30.986Z,54.92
2023-04-27T05:39:57.556Z,54.82
2023-04-27T05:42:24.208Z,54.72
2023-04-27T05:44:50.723Z,54.34
2023-04-27T05:47:17.295Z,54.19
2023-04-27T05:49:44.010Z,54.02
2023-04-27T05:52:10.467Z,53.81
2023-04-27T05:54:36.967Z,53.79
2023-04-27T05:57:03.489Z,53.65
2023-04-27T05:59:29.988Z,53.54
2023-04-27T06:01:56.572Z,53.23
2023-04-27T06:04:23.288Z,53.04
2023-04-27T06:06:50.078Z,52.84
2023-04-27T06:09:16.703Z,52.77
2023-04-27T06:11:44.197Z,52.36
2023-04-27T06:14:10.707Z,52.20
2023-04-27T06:16:37.170Z,52.03
2023-04-27T06:19:03.787Z,51.91
2023-04-27T06:21:32.905Z,51.72
2023-04-27T06:24:00.483Z,51.52
2023-04-27T06:26:27.661Z,52.66
2023-04-27T06:28:54.376Z,53.43
2023-04-27T06:31:21.135Z,52.89
2023-04-27T06:33:47.712Z,52.24
2023-04-27T06:36:14.196Z,51.24
2023-04-27T06:38:40.749Z,50.97
2023-04-27T06:41:07.242Z,50.63
2023-04-27T06:43:33.808Z,50.38
2023-04-27T06:46:00.626Z,50.29
2023-04-27T06:48:27.332Z,50.27
2023-04-27T06:50:53.993Z,49.99
2023-04-27T06:53:20.954Z,49.55
2023-04-27T06:55:48.623Z,49.69
2023-04-27T06:58:15.407Z,49.66
2023-04-27T07:00:41.924Z,49.43
2023-04-27T07:03:08.595Z,49.11
2023-04-27T07:05:35.352Z,48.83
2023-04-27T07:08:05.393Z,48.67
2023-04-27T07:10:33.746Z,48.31
2023-04-27T07:13:00.268Z,47.47
2023-04-27T07:15:26.894Z,48.03
2023-04-27T07:17:53.512Z,48.21
2023-04-27T07:20:20.322Z,47.68
2023-04-27T07:22:46.938Z,47.11
2023-04-27T07:25:13.574Z,47.20
2023-04-27T07:27:40.865Z,47.46
2023-04-27T07:30:09.409Z,47.27
2023-04-27T07:32:38.508Z,45.94
2023-04-27T07:35:05.620Z,46.44
2023-04-27T07:37:32.187Z,46.74
2023-04-27T07:39:59.049Z,46.74
2023-04-27T07:42:25.551Z,46.80
2023-04-27T07:44:52.650Z,46.52
2023-04-27T07:47:19.329Z,46.44
2023-04-27T07:49:46.547Z,46.53
2023-04-27T07:52:13.660Z,46.77
2023-04-27T07:54:40.388Z,47.00
2023-04-27T07:57:13.509Z,46.86
2023-04-27T07:59:40.322Z,46.72
2023-04-27T08:02:17.666Z,46.80
2023-04-27T08:04:47.274Z,46.70
2023-04-27T08:07:16.021Z,46.88
2023-04-27T08:09:42.897Z,46.78
2023-04-27T08:12:09.469Z,46.71
2023-04-27T08:14:36.199Z,46.76
2023-04-27T08:17:02.898Z,46.67
2023-04-27T08:19:29.546Z,46.68
2023-04-27T08:21:56.140Z,46.72
2023-04-27T08:24:23.049Z,46.62
2023-04-27T08:26:49.656Z,46.37
2023-04-27T08:29:27.075Z,45.99
2023-04-27T08:31:57.972Z,45.26
2023-04-27T08:34:25.074Z,45.65
2023-04-27T08:36:53.377Z,45.94
2023-04-27T08:39:20.500Z,46.00
2023-04-27T08:41:47.028Z,45.77
2023-04-27T08:44:13.637Z,45.79
2023-04-27T08:46:40.338Z,45.82
2023-04-27T08:49:07.045Z,45.94
2023-04-27T08:51:34.094Z,45.95
2023-04-27T08:54:00.727Z,45.49
2023-04-27T08:56:29.705Z,45.04
2023-04-27T08:58:57.848Z,45.12
2023-04-27T09:01:25.626Z,45.33
2023-04-27T09:04:00.256Z,45.51
2023-04-27T09:06:34.582Z,45.41
2023-04-27T09:09:03.638Z,45.35
2023-04-27T09:11:37.739Z,45.32
2023-04-27T09:14:22.473Z,45.67
2023-04-27T09:16:57.261Z,45.68
2023-04-27T09:19:28.830Z,45.86
2023-04-27T09:22:04.953Z,45.96
2023-04-27T09:24:31.583Z,45.95
2023-04-27T09:27:00.179Z,46.18
2023-04-27T09:29:37.541Z,45.99
2023-04-27T09:32:16.979Z,46.11
2023-04-27T09:34:44.491Z,46.07
2023-04-27T09:37:12.054Z,46.10
2023-04-27T09:39:39.245Z,46.07
2023-04-27T09:42:05.808Z,46.03
2023-04-27T09:44:33.719Z,46.06
2023-04-27T09:47:00.970Z,46.39
2023-04-27T09:49:28.567Z,45.87
2023-04-27T09:51:58.070Z,45.98
2023-04-27T09:54:29.585Z,45.83
2023-04-27T09:57:08.698Z,45.84
2023-04-27T09:59:47.467Z,45.89
2023-04-27T10:02:25.211Z,46.15
2023-04-27T10:05:21.334Z,45.91
2023-04-27T10:07:48.774Z,45.70
2023-04-27T10:10:17.873Z,45.48
2023-04-27T10:13:00.619Z,45.45
2023-04-27T10:15:29.158Z,45.24
2023-04-27T10:17:59.337Z,44.92
2023-04-27T10:20:31.172Z,44.94
2023-04-27T10:22:59.547Z,44.92
2023-04-27T10:25:29.070Z,44.55
2023-04-27T10:27:57.585Z,44.29
2023-04-27T10:30:30.674Z,43.69
2023-04-27T10:32:59.797Z,43.60
2023-04-27T10:35:57.329Z,43.42
2023-04-27T10:38:30.138Z,43.16
2023-04-27T10:41:02.411Z,43.06
2023-04-27T10:43:31.555Z,43.07
2023-04-27T10:46:12.116Z,43.06
2023-04-27T10:48:40.454Z,42.53
2023-04-27T10:51:07.367Z,42.53
2023-04-27T10:53:36.938Z,42.86
2023-04-27T10:56:06.098Z,42.82
2023-04-27T10:58:47.550Z,41.82
2023-04-27T11:01:26.420Z,41.97
2023-04-27T11:04:00.381Z,42.59
2023-04-27T11:06:34.254Z,42.04
2023-04-27T11:09:01.065Z,41.90
2023-04-27T11:11:27.629Z,41.65
2023-04-27T11:13:55.346Z,41.29
2023-04-27T11:16:22.526Z,41.44
2023-04-27T11:18:49.183Z,41.97
2023-04-27T11:21:17.911Z,42.06
2023-04-27T11:23:44.450Z,42.31
2023-04-27T11:26:13.899Z,42.22
2023-04-27T11:28:44.415Z,42.16
2023-04-27T11:31:11.146Z,42.05
2023-04-27T11:33:39.566Z,42.55
2023-04-27T11:36:20.542Z,43.10
2023-04-27T11:38:47.260Z,42.95
2023-04-27T11:41:14.207Z,43.19
2023-04-27T11:43:42.633Z,43.32
2023-04-27T11:46:12.583Z,43.75
2023-04-27T11:48:39.300Z,43.40
2023-04-27T11:51:07.106Z,43.43
2023-04-27T11:53:35.854Z,43.72
2023-04-27T11:56:07.302Z,43.67
2023-04-27T11:58:35.504Z,43.49
2023-04-27T12:01:03.652Z,43.41
2023-04-27T12:03:31.235Z,42.93
2023-04-27T12:06:04.051Z,42.48
2023-04-27T12:08:38.564Z,42.41
2023-04-27T12:11:05.187Z,42.20
2023-04-27T12:13:31.766Z,41.82
2023-04-27T12:15:59.154Z,41.79
2023-04-27T12:18:27.599Z,41.68
2023-04-27T12:20:54.129Z,41.45
2023-04-27T12:23:20.619Z,41.15
2023-04-27T12:25:47.822Z,41.26
2023-04-27T12:28:18.332Z,41.42
2023-04-27T12:30:45.371Z,42.23
2023-04-27T12:33:11.989Z,42.19
2023-04-27T12:35:38.648Z,41.94
2023-04-27T12:38:05.210Z,41.95
2023-04-27T12:40:32.668Z,41.91
2023-04-27T12:43:01.017Z,41.86
2023-04-27T12:45:28.029Z,41.81
2023-04-27T12:48:03.273Z,41.81
2023-04-27T12:50:36.141Z,41.30
2023-04-27T12:53:03.044Z,41.60
2023-04-27T12:55:32.880Z,41.64
2023-04-27T12:58:01.436Z,41.58
2023-04-27T13:00:28.917Z,41.38
2023-04-27T13:02:55.973Z,41.48
2023-04-27T13:05:22.676Z,41.39
2023-04-27T13:07:49.237Z,41.02
2023-04-27T13:10:15.986Z,41.28
2023-04-27T13:12:42.910Z,41.14
2023-04-27T13:15:10.217Z,40.78
2023-04-27T13:17:36.791Z,40.73
2023-04-27T13:20:03.672Z,40.52
2023-04-27T13:22:30.172Z,40.35
2023-04-27T13:24:57.270Z,40.27
2023-04-27T13:27:24.979Z,40.30
2023-04-27T13:29:51.497Z,40.35
2023-04-27T13:32:18.017Z,40.26
2023-04-27T13:34:44.790Z,40.08
2023-04-27T13:37:11.407Z,39.57
2023-04-27T13:39:37.985Z,39.07
2023-04-27T13:42:05.031Z,39.40
2023-04-27T13:44:31.947Z,39.74
2023-04-27T13:46:58.556Z,39.81
2023-04-27T13:49:25.254Z,39.60
2023-04-27T13:51:51.857Z,39.57
2023-04-27T13:54:19.445Z,39.50
2023-04-27T13:56:46.006Z,38.97
2023-04-27T13:59:12.753Z,38.62
2023-04-27T14:01:39.623Z,38.75
2023-04-27T14:04:06.699Z,39.04
2023-04-27T14:06:33.419Z,39.28
2023-04-27T14:08:59.965Z,39.30
2023-04-27T14:11:26.565Z,39.52
2023-04-27T14:13:53.131Z,39.56
2023-04-27T14:16:20.375Z,39.64
2023-04-27T14:18:46.928Z,39.70
2023-04-27T14:21:13.495Z,40.18
2023-04-27T14:23:40.302Z,40.46
2023-04-27T14:26:06.861Z,40.53
2023-04-27T14:28:33.938Z,40.57
2023-04-27T14:31:00.445Z,40.33
2023-04-27T14:33:26.944Z,40.24
2023-04-27T14:35:53.788Z,40.31
2023-04-27T14:38:20.346Z,40.28
2023-04-27T14:40:46.901Z,40.23
2023-04-27T14:43:13.595Z,40.46
2023-04-27T14:45:51.111Z,40.34
2023-04-27T14:48:20.919Z,40.27
2023-04-27T14:50:47.430Z,40.02
2023-04-27T14:53:14.050Z,39.89
2023-04-27T14:55:42.725Z,40.10
2023-04-27T14:58:09.255Z,40.36
2023-04-27T15:00:35.847Z,40.34
2023-04-27T15:03:02.589Z,40.30
2023-04-27T15:05:29.982Z,40.22
2023-04-27T15:07:56.647Z,40.29
2023-04-27T15:10:23.120Z,40.62
2023-04-27T15:12:49.655Z,40.58
2023-04-27T15:15:16.338Z,40.55
2023-04-27T15:17:43.012Z,40.46
2023-04-27T15:20:10.264Z,40.35
2023-04-27T15:22:36.785Z,40.44
2023-04-27T15:25:03.866Z,40.44
2023-04-27T15:27:30.453Z,40.45
2023-04-27T15:29:57.965Z,40.38
2023-04-27T15:32:29.189Z,40.48
2023-04-27T15:34:59.253Z,40.53
2023-04-27T15:37:27.803Z,40.43
2023-04-27T15:39:54.836Z,40.04
2023-04-27T15:42:46.548Z,40.09
2023-04-27T15:45:13.168Z,40.19
2023-04-27T15:47:39.826Z,40.13
2023-04-27T15:50:07.478Z,40.22
2023-04-27T15:52:33.990Z,40.15
2023-04-27T15:55:00.700Z,40.49
2023-04-27T15:57:27.269Z,40.50
2023-04-27T15:59:53.928Z,40.52
2023-04-27T16:02:20.664Z,40.47
2023-04-27T16:04:48.543Z,40.33
2023-04-27T16:07:15.131Z,40.40
2023-04-27T16:09:41.766Z,40.39
2023-04-27T16:12:08.315Z,40.45
2023-04-27T16:14:34.979Z,40.43
2023-04-27T16:17:01.707Z,40.62
2023-04-27T16:19:28.440Z,40.68
2023-04-27T16:21:55.370Z,40.91
2023-04-27T16:24:21.965Z,40.94
2023-04-27T16:26:48.504Z,40.95
2023-04-27T16:29:15.290Z,40.94
2023-04-27T16:31:42.467Z,41.03
2023-04-27T16:34:09.003Z,40.98
2023-04-27T16:36:36.027Z,41.15
2023-04-27T16:39:04.345Z,41.10
2023-04-27T16:41:30.882Z,41.06
2023-04-27T16:43:57.565Z,40.85
2023-04-27T16:46:24.169Z,40.90
2023-04-27T16:48:50.723Z,41.04
2023-04-27T16:51:17.339Z,41.07
2023-04-27T16:53:43.857Z,41.02
2023-04-27T16:56:12.815Z,41.28
2023-04-27T16:58:39.924Z,41.26
2023-04-27T17:01:06.522Z,41.37
2023-04-27T17:03:35.283Z,41.31
2023-04-27T17:06:02.450Z,41.23
2023-04-27T17:08:29.084Z,41.18
2023-04-27T17:10:55.680Z,41.31
2023-04-27T17:13:22.211Z,41.34
2023-04-27T17:15:49.984Z,41.42
2023-04-27T17:18:17.047Z,41.46
2023-04-27T17:20:43.713Z,41.23
2023-04-27T17:23:10.446Z,41.44
2023-04-27T17:25:36.963Z,41.57
2023-04-27T17:28:03.578Z,41.65
2023-04-27T17:30:30.402Z,41.71
2023-04-27T17:32:57.272Z,41.72
2023-04-27T17:35:24.186Z,41.70
2023-04-27T17:37:51.199Z,41.88
2023-04-27T17:40:20.165Z,42.02
2023-04-27T17:42:46.858Z,41.91
2023-04-27T17:45:13.357Z,41.97
2023-04-27T17:47:40.265Z,42.12
2023-04-27T17:50:08.086Z,42.14
2023-04-27T17:52:35.083Z,42.17
2023-04-27T17:55:01.594Z,42.17
2023-04-27T17:57:28.122Z,41.97
2023-04-27T17:59:54.724Z,42.02
2023-04-27T18:02:21.456Z,41.94
2023-04-27T18:04:48.366Z,42.05
2023-04-27T18:07:17.805Z,42.28
2023-04-27T18:09:44.709Z,42.20
2023-04-27T18:12:11.412Z,42.23
2023-04-27T18:14:38.095Z,42.57
2023-04-27T18:17:05.257Z,42.64
2023-04-27T18:19:31.847Z,42.78
2023-04-27T18:21:58.607Z,42.63
2023-04-27T18:24:25.203Z,42.71
2023-04-27T18:26:51.886Z,42.88
2023-04-27T18:29:18.799Z,43.02
2023-04-27T18:31:45.524Z,43.22
2023-04-27T18:34:12.529Z,43.39
2023-04-27T18:36:39.241Z,43.41
2023-04-27T18:39:05.937Z,43.63
2023-04-27T18:41:32.509Z,43.70
2023-04-27T18:44:04.251Z,43.75
2023-04-27T18:46:31.764Z,43.82
2023-04-27T18:48:58.769Z,44.04
2023-04-27T18:51:25.749Z,44.11
2023-04-27T18:53:52.955Z,44.34
2023-04-27T18:56:19.595Z,44.54
2023-04-27T18:58:48.110Z,44.61
2023-04-27T19:01:29.568Z,44.65
2023-04-27T19:03:57.292Z,44.72
2023-04-27T19:06:24.654Z,44.88
2023-04-27T19:08:51.421Z,44.96
2023-04-27T19:11:21.673Z,45.08
2023-04-27T19:13:49.901Z,45.26
2023-04-27T19:16:17.474Z,45.39
2023-04-27T19:18:44.382Z,45.68
2023-04-27T19:21:12.959Z,45.78
2023-04-27T19:23:39.774Z,45.80
2023-04-27T19:26:12.909Z,45.92
2023-04-27T19:28:40.514Z,45.99
2023-04-27T19:31:07.308Z,45.99
2023-04-27T19:36:56.138Z,46.30
2023-04-27T19:39:22.714Z,46.47
2023-04-27T19:41:49.329Z,46.57
2023-04-27T19:44:16.121Z,46.55
2023-04-27T19:46:43.102Z,46.74
2023-04-27T19:49:09.893Z,46.96
2023-04-27T19:51:36.526Z,47.00
2023-04-27T19:54:03.260Z,47.08
2023-04-27T19:56:29.961Z,47.10
2023-04-27T19:58:56.630Z,47.12
2023-04-27T20:01:23.183Z,47.09
2023-04-27T20:03:52.723Z,47.22
2023-04-27T20:06:21.232Z,47.50
2023-04-27T20:08:48.779Z,47.57
2023-04-27T20:11:16.477Z,47.81
2023-04-27T20:13:43.178Z,47.99
2023-04-27T20:16:10.064Z,48.04
2023-04-27T20:18:37.321Z,48.06
2023-04-27T20:21:04.120Z,48.20
2023-04-27T20:23:30.865Z,48.35
2023-04-27T20:25:57.381Z,48.68
2023-04-27T20:28:24.001Z,48.76
2023-04-27T20:30:50.583Z,48.77
2023-04-27T20:33:17.740Z,48.91
2023-04-27T20:35:46.096Z,49.21
2023-04-27T20:38:12.886Z,49.21
2023-04-27T20:40:41.338Z,49.41
2023-04-27T20:43:08.228Z,49.40
2023-04-27T20:45:34.937Z,49.32
2023-04-27T20:48:02.555Z,49.36
2023-04-27T20:50:29.209Z,49.49
2023-04-27T20:52:55.760Z,49.53
2023-04-27T20:55:22.351Z,49.54
2023-04-27T20:57:48.917Z,49.65
2023-04-27T21:00:16.390Z,49.88
2023-04-27T21:02:43.056Z,50.06
2023-04-27T21:05:09.772Z,50.22
2023-04-27T21:07:36.396Z,50.13
2023-04-27T21:10:05.526Z,50.27
2023-04-27T21:12:33.106Z,50.33
2023-04-27T21:15:00.706Z,50.44
2023-04-27T21:17:27.755Z,50.54
2023-04-27T21:19:55.547Z,50.74
2023-04-27T21:22:22.298Z,50.79
2023-04-27T21:24:48.980Z,50.84
2023-04-27T21:27:15.636Z,51.02
2023-04-27T21:29:42.168Z,51.06
2023-04-27T21:32:08.858Z,51.27
2023-04-27T21:34:35.415Z,51.42
2023-04-27T21:37:01.977Z,51.59
2023-04-27T21:39:28.582Z,51.65
2023-04-27T21:41:55.144Z,51.84
2023-04-27T21:44:21.673Z,51.94
2023-04-27T21:46:48.382Z,52.15
2023-04-27T21:49:15.094Z,52.34
2023-04-27T21:51:41.699Z,52.49
2023-04-27T21:54:08.342Z,52.44
2023-04-27T21:56:34.916Z,52.54
2023-04-27T21:59:01.474Z,52.59
2023-04-27T22:01:28.147Z,52.80
2023-04-27T22:03:55.158Z,52.84
2023-04-27T22:06:21.987Z,52.99
2023-04-27T22:08:48.631Z,53.00
2023-04-27T22:11:15.196Z,53.18
2023-04-27T22:13:41.934Z,53.29
2023-04-27T22:16:08.588Z,53.33
2023-04-27T22:18:35.203Z,53.45
2023-04-27T22:21:01.869Z,53.64
2023-04-27T22:23:30.123Z,53.60
2023-04-27T22:25:56.674Z,53.78
2023-04-27T22:28:23.323Z,53.85
2023-04-27T22:30:49.991Z,53.87
2023-04-27T22:33:16.866Z,54.03
2023-04-27T22:35:44.207Z,54.11
2023-04-27T22:38:10.808Z,54.15
2023-04-27T22:40:37.665Z,54.38
2023-04-27T22:43:04.315Z,54.41
2023-04-27T22:45:31.340Z,54.44
2023-04-27T22:47:57.925Z,54.51
2023-04-27T22:50:24.533Z,54.65
2023-04-27T22:52:52.310Z,54.63
2023-04-27T22:55:18.864Z,54.69
2023-04-27T22:57:45.515Z,54.84
2023-04-27T23:00:12.393Z,54.96
2023-04-27T23:02:40.076Z,55.19
2023-04-27T23:05:07.285Z,55.19
2023-04-27T23:07:34.468Z,55.26
2023-04-27T23:10:02.367Z,55.38
2023-04-27T23:12:30.136Z,55.34
2023-04-27T23:14:59.871Z,55.37
2023-04-27T23:17:32.419Z,55.58
2023-04-27T23:20:00.946Z,55.58
2023-04-27T23:22:28.001Z,55.69
2023-04-27T23:24:54.823Z,55.75
2023-04-27T23:27:23.910Z,55.90
2023-04-27T23:29:50.690Z,55.90
2023-04-27T23:32:17.329Z,55.84
2023-04-27T23:34:43.912Z,55.88
2023-04-27T23:37:10.638Z,56.02
2023-04-27T23:39:37.736Z,56.07
2023-04-27T23:42:04.554Z,56.16
2023-04-27T23:44:31.183Z,56.16
2023-04-27T23:46:57.698Z,56.12
2023-04-27T23:49:24.223Z,55.96
2023-04-27T23:51:52.013Z,56.00
2023-04-27T23:54:18.780Z,55.96
2023-04-27T23:56:45.490Z,55.89
2023-04-27T23:59:14.232Z,55.94
